createdAt,value
2019-05-25T00:01:54.752Z,83.90
2019-05-25T00:04:23.992Z,85.10
2019-05-25T00:06:54.200Z,84.70
2019-05-25T00:09:25.105Z,83.80
2019-05-25T00:11:53.996Z,83.50
2019-05-25T00:14:22.987Z,82.20
2019-05-25T00:16:54.466Z,82.30
2019-05-25T00:19:23.584Z,81.90
2019-05-25T00:21:52.510Z,83.40
2019-05-25T00:24:21.499Z,83.00
2019-05-25T00:26:50.441Z,83.50
2019-05-25T00:29:21.256Z,82.90
2019-05-25T00:31:53.160Z,82.70
2019-05-25T00:34:22.148Z,82.00
2019-05-25T00:36:51.096Z,82.30
2019-05-25T00:39:19.939Z,82.50
2019-05-25T00:41:48.837Z,83.40
2019-05-25T00:44:17.757Z,82.50
2019-05-25T00:46:46.721Z,81.70
2019-05-25T00:49:18.515Z,81.00
2019-05-25T00:51:47.388Z,82.60
2019-05-25T00:54:27.550Z,82.00
2019-05-25T00:56:47.121Z,82.30
2019-05-25T00:59:16.007Z,81.50
2019-05-25T01:01:45.026Z,81.40
2019-05-25T01:04:15.697Z,83.20
2019-05-25T01:06:44.587Z,81.70
2019-05-25T01:09:13.626Z,81.70
2019-05-25T01:11:45.316Z,81.30
2019-05-25T01:14:14.164Z,81.40
2019-05-25T01:16:45.023Z,81.20
2019-05-25T01:19:14.177Z,80.50
2019-05-25T01:21:43.223Z,81.20
2019-05-25T01:24:15.143Z,80.70
2019-05-25T01:26:44.101Z,82.40
2019-05-25T01:29:15.717Z,81.40
2019-05-25T01:31:44.588Z,82.70
2019-05-25T01:34:13.542Z,82.10
2019-05-25T01:36:42.421Z,82.30
2019-05-25T01:39:11.372Z,81.60
2019-05-25T01:41:40.408Z,81.80
2019-05-25T01:44:09.428Z,82.10
2019-05-25T01:46:39.481Z,81.90
2019-05-25T01:49:08.391Z,82.00
2019-05-25T01:51:37.398Z,82.30
2019-05-25T01:54:06.231Z,81.40
2019-05-25T01:56:35.127Z,81.50
2019-05-25T01:59:04.251Z,82.60
2019-05-25T02:01:33.252Z,82.20
2019-05-25T02:04:02.214Z,82.10
2019-05-25T02:06:31.319Z,81.20
2019-05-25T02:09:00.431Z,82.70
2019-05-25T02:11:29.498Z,82.20
2019-05-25T02:13:58.702Z,82.20
2019-05-25T02:16:27.945Z,82.10
2019-05-25T02:18:59.381Z,82.20
2019-05-25T02:21:28.245Z,82.80
2019-05-25T02:23:57.177Z,82.90
2019-05-25T02:26:26.060Z,82.90
2019-05-25T02:28:55.053Z,82.50
2019-05-25T02:31:24.047Z,82.60
2019-05-25T02:33:52.840Z,82.80
2019-05-25T02:36:21.733Z,82.90
2019-05-25T02:38:50.671Z,83.00
2019-05-25T02:41:19.564Z,82.80
2019-05-25T02:43:50.758Z,83.10
2019-05-25T02:46:19.648Z,83.30
2019-05-25T02:48:48.544Z,83.20
2019-05-25T02:51:17.412Z,84.10
2019-05-25T02:53:49.243Z,83.50
2019-05-25T02:56:18.191Z,83.10
2019-05-25T02:58:47.022Z,82.90
2019-05-25T03:01:15.956Z,83.10
2019-05-25T03:03:44.907Z,83.10
2019-05-25T03:06:13.810Z,83.00
2019-05-25T03:08:44.446Z,83.10
2019-05-25T03:11:13.554Z,83.10
2019-05-25T03:13:42.708Z,83.50
2019-05-25T03:16:11.676Z,84.50
2019-05-25T03:18:40.651Z,84.10
2019-05-25T03:21:09.643Z,83.60
2019-05-25T03:23:38.559Z,83.60
2019-05-25T03:26:07.415Z,83.20
2019-05-25T03:28:36.357Z,83.60
2019-05-25T03:31:05.292Z,83.50
2019-05-25T03:33:34.343Z,83.20
2019-05-25T03:36:03.608Z,84.00
2019-05-25T03:38:32.550Z,84.40
2019-05-25T03:41:01.430Z,84.10
2019-05-25T03:43:30.484Z,84.20
2019-05-25T03:45:59.598Z,84.80
2019-05-25T03:48:28.615Z,84.50
2019-05-25T03:50:58.236Z,84.10
2019-05-25T03:53:27.261Z,84.20
2019-05-25T03:56:05.344Z,84.20
2019-05-25T03:58:26.836Z,84.40
2019-05-25T04:00:55.790Z,84.80
2019-05-25T04:03:24.736Z,84.90
2019-05-25T04:05:53.780Z,85.00
2019-05-25T04:08:22.572Z,85.00
2019-05-25T04:10:51.430Z,85.40
2019-05-25T04:13:20.280Z,85.70
2019-05-25T04:15:49.253Z,85.70
2019-05-25T04:18:18.057Z,85.60
2019-05-25T04:20:46.989Z,85.50
2019-05-25T04:23:15.975Z,86.00
2019-05-25T04:25:47.094Z,85.50
2019-05-25T04:28:19.087Z,85.50
2019-05-25T04:30:48.004Z,85.60
2019-05-25T04:33:16.961Z,85.90
2019-05-25T04:35:45.698Z,86.00
2019-05-25T04:38:14.451Z,85.60
2019-05-25T04:40:43.200Z,84.70
2019-05-25T04:43:12.041Z,84.50
2019-05-25T04:45:40.866Z,84.20
2019-05-25T04:48:09.621Z,84.30
2019-05-25T04:50:38.369Z,84.50
2019-05-25T04:53:07.128Z,84.00
2019-05-25T04:55:35.941Z,83.40
2019-05-25T04:58:04.975Z,83.40
2019-05-25T05:00:33.798Z,83.50
2019-05-25T05:03:02.606Z,83.10
2019-05-25T05:05:31.376Z,82.80
2019-05-25T05:08:00.207Z,82.80
2019-05-25T05:10:28.958Z,82.40
2019-05-25T05:12:57.808Z,83.00
2019-05-25T05:15:26.551Z,82.40
2019-05-25T05:17:55.369Z,82.20
2019-05-25T05:20:24.316Z,82.00
2019-05-25T05:22:53.126Z,82.30
2019-05-25T05:25:21.888Z,82.50
2019-05-25T05:27:50.707Z,82.20
2019-05-25T05:30:22.904Z,82.30
2019-05-25T05:32:51.651Z,82.00
2019-05-25T05:35:20.407Z,81.70
2019-05-25T05:37:49.408Z,82.10
2019-05-25T05:40:18.404Z,81.60
2019-05-25T05:42:49.351Z,81.60
2019-05-25T05:45:18.193Z,80.90
2019-05-25T05:47:50.186Z,80.60
2019-05-25T05:50:19.581Z,80.60
2019-05-25T05:52:51.088Z,81.20
2019-05-25T05:55:45.307Z,80.30
2019-05-25T05:57:54.682Z,79.50
2019-05-25T06:00:23.674Z,78.90
2019-05-25T06:02:52.672Z,79.30
2019-05-25T06:05:21.436Z,79.30
2019-05-25T06:07:50.317Z,78.60
2019-05-25T06:10:19.533Z,79.10
2019-05-25T06:12:48.757Z,77.40
2019-05-25T06:15:18.157Z,76.60
2019-05-25T06:17:46.981Z,77.20
2019-05-25T06:20:15.878Z,76.00
2019-05-25T06:22:44.632Z,76.90
2019-05-25T06:25:13.643Z,76.50
2019-05-25T06:27:42.457Z,75.10
2019-05-25T06:30:12.163Z,75.00
2019-05-25T06:32:40.896Z,75.40
2019-05-25T06:35:09.909Z,74.90
2019-05-25T06:37:38.653Z,74.20
2019-05-25T06:40:08.445Z,74.80
2019-05-25T06:42:37.344Z,75.60
2019-05-25T06:45:07.476Z,74.50
2019-05-25T06:47:36.423Z,74.10
2019-05-25T06:50:05.987Z,74.50
2019-05-25T06:52:34.820Z,74.90
2019-05-25T06:55:03.881Z,76.20
2019-05-25T06:57:42.563Z,74.50
2019-05-25T07:00:03.382Z,74.70
2019-05-25T07:02:32.138Z,74.20
2019-05-25T07:05:00.878Z,75.70
2019-05-25T07:07:29.637Z,74.90
2019-05-25T07:09:58.494Z,74.30
2019-05-25T07:12:27.236Z,75.30
2019-05-25T07:14:56.057Z,74.10
2019-05-25T07:17:24.866Z,72.00
2019-05-25T07:19:53.651Z,72.30
2019-05-25T07:22:22.601Z,72.90
2019-05-25T07:24:51.537Z,71.00
2019-05-25T07:27:20.389Z,71.90
2019-05-25T07:29:49.193Z,71.70
2019-05-25T07:32:17.999Z,72.50
2019-05-25T07:34:46.731Z,74.00
2019-05-25T07:37:15.678Z,73.00
2019-05-25T07:39:44.505Z,72.20
2019-05-25T07:42:13.582Z,70.90
2019-05-25T07:44:42.341Z,71.30
2019-05-25T07:47:11.180Z,69.50
2019-05-25T07:49:40.020Z,68.90
2019-05-25T07:52:08.765Z,68.40
2019-05-25T07:54:37.513Z,68.60
2019-05-25T07:57:06.444Z,68.10
2019-05-25T07:59:35.201Z,69.60
2019-05-25T08:02:04.040Z,69.70
2019-05-25T08:04:32.796Z,69.60
2019-05-25T08:07:01.608Z,70.00
2019-05-25T08:09:30.361Z,69.80
2019-05-25T08:11:59.376Z,68.90
2019-05-25T08:14:28.117Z,70.60
2019-05-25T08:16:56.983Z,69.90
2019-05-25T08:19:25.881Z,70.30
2019-05-25T08:21:54.722Z,69.30
2019-05-25T08:24:23.514Z,68.60
2019-05-25T08:26:52.255Z,68.40
2019-05-25T08:29:21.072Z,69.30
2019-05-25T08:31:49.829Z,69.40
2019-05-25T08:34:18.656Z,69.00
2019-05-25T08:36:47.682Z,68.50
2019-05-25T08:39:16.522Z,67.80
2019-05-25T08:41:45.729Z,67.90
2019-05-25T08:44:14.632Z,69.30
2019-05-25T08:46:43.483Z,70.30
2019-05-25T08:49:12.372Z,68.00
2019-05-25T08:51:41.279Z,69.40
2019-05-25T08:54:10.138Z,68.10
2019-05-25T08:56:38.879Z,70.10
2019-05-25T08:59:07.779Z,68.80
2019-05-25T09:01:36.804Z,69.00
2019-05-25T09:04:05.689Z,68.70
2019-05-25T09:06:34.490Z,67.30
2019-05-25T09:09:04.496Z,67.80
2019-05-25T09:11:33.261Z,67.20
2019-05-25T09:14:02.009Z,67.00
2019-05-25T09:16:30.901Z,64.90
2019-05-25T09:18:59.763Z,64.10
2019-05-25T09:21:28.524Z,65.10
2019-05-25T09:23:57.380Z,64.70
2019-05-25T09:26:26.467Z,64.60
2019-05-25T09:29:04.018Z,63.10
2019-05-25T09:31:25.743Z,62.80
2019-05-25T09:33:54.502Z,64.20
2019-05-25T09:36:23.315Z,65.30
2019-05-25T09:38:52.078Z,63.60
2019-05-25T09:41:20.832Z,62.90
2019-05-25T09:43:49.625Z,61.60
2019-05-25T09:46:18.512Z,62.30
2019-05-25T09:48:47.329Z,63.80
2019-05-25T09:51:16.145Z,64.40
2019-05-25T09:53:45.180Z,61.70
2019-05-25T09:56:13.955Z,63.10
2019-05-25T09:58:42.787Z,64.50
2019-05-25T10:01:11.630Z,62.50
2019-05-25T10:03:40.390Z,63.40
2019-05-25T10:06:12.754Z,62.30
2019-05-25T10:08:39.794Z,62.60
2019-05-25T10:11:08.590Z,62.70
2019-05-25T10:13:37.419Z,63.40
2019-05-25T10:16:08.409Z,62.60
2019-05-25T10:18:37.296Z,63.00
2019-05-25T10:21:06.166Z,62.10
2019-05-25T10:23:35.030Z,61.10
2019-05-25T10:26:03.811Z,61.60
2019-05-25T10:28:34.767Z,60.90
2019-05-25T10:31:03.595Z,59.50
2019-05-25T10:33:32.833Z,61.30
2019-05-25T10:36:02.009Z,62.10
2019-05-25T10:38:30.900Z,60.40
2019-05-25T10:40:59.734Z,61.70
2019-05-25T10:43:28.748Z,60.00
2019-05-25T10:45:57.577Z,59.30
2019-05-25T10:48:26.340Z,57.10
2019-05-25T10:50:55.128Z,58.70
2019-05-25T10:53:23.939Z,58.90
2019-05-25T10:55:52.729Z,59.00
2019-05-25T10:58:21.474Z,59.40
2019-05-25T11:00:50.672Z,57.60
2019-05-25T11:03:19.855Z,57.10
2019-05-25T11:05:48.632Z,56.90
2019-05-25T11:08:17.439Z,56.00
2019-05-25T11:10:46.198Z,57.00
2019-05-25T11:13:15.041Z,57.30
2019-05-25T11:15:43.902Z,55.80
2019-05-25T11:18:12.733Z,54.60
2019-05-25T11:20:41.692Z,52.70
2019-05-25T11:23:10.472Z,53.40
2019-05-25T11:25:39.432Z,53.30
2019-05-25T11:28:08.588Z,54.10
2019-05-25T11:30:37.351Z,55.20
2019-05-25T11:33:06.274Z,54.40
2019-05-25T11:35:35.298Z,53.00
2019-05-25T11:38:04.200Z,54.60
2019-05-25T11:40:33.175Z,53.50
2019-05-25T11:43:02.023Z,53.70
2019-05-25T11:45:30.972Z,54.50
2019-05-25T11:47:59.741Z,52.80
2019-05-25T11:50:28.755Z,53.80
2019-05-25T11:52:57.574Z,53.70
2019-05-25T11:55:26.486Z,54.70
2019-05-25T11:57:55.292Z,54.80
2019-05-25T12:00:26.062Z,54.10
2019-05-25T12:02:55.132Z,53.40
2019-05-25T12:05:23.965Z,55.20
2019-05-25T12:07:52.799Z,54.90
2019-05-25T12:10:21.823Z,53.90
2019-05-25T12:12:50.663Z,53.10
2019-05-25T12:15:19.646Z,54.80
2019-05-25T12:17:48.580Z,54.20
2019-05-25T12:20:18.135Z,55.60
2019-05-25T12:22:46.907Z,54.90
2019-05-25T12:25:16.648Z,55.30
2019-05-25T12:27:48.892Z,57.50
2019-05-25T12:30:16.251Z,58.30
2019-05-25T12:32:45.062Z,58.40
2019-05-25T12:35:14.243Z,58.40
2019-05-25T12:37:43.150Z,58.80
2019-05-25T12:40:12.101Z,59.60
2019-05-25T12:42:40.928Z,60.00
2019-05-25T12:45:11.427Z,60.00
2019-05-25T12:47:40.328Z,61.10
2019-05-25T12:50:09.335Z,60.50
2019-05-25T12:52:38.170Z,61.70
2019-05-25T12:55:07.319Z,61.80
2019-05-25T12:57:36.128Z,61.60
2019-05-25T13:00:15.610Z,62.00
2019-05-25T13:02:36.496Z,61.80
2019-05-25T13:05:05.523Z,62.10
2019-05-25T13:07:34.613Z,64.50
2019-05-25T13:10:03.810Z,63.30
2019-05-25T13:12:32.622Z,64.30
2019-05-25T13:15:01.390Z,64.50
2019-05-25T13:17:31.831Z,64.70
2019-05-25T13:20:00.679Z,65.70
2019-05-25T13:22:29.539Z,66.00
2019-05-25T13:24:58.591Z,65.30
2019-05-25T13:27:27.652Z,64.90
2019-05-25T13:29:56.495Z,63.50
2019-05-25T13:32:25.384Z,64.20
2019-05-25T13:34:54.237Z,62.80
2019-05-25T13:37:23.096Z,63.70
2019-05-25T13:39:51.973Z,61.00
2019-05-25T13:42:20.748Z,63.70
2019-05-25T13:44:49.611Z,62.90
2019-05-25T13:47:18.396Z,60.20
2019-05-25T13:49:47.168Z,60.00
2019-05-25T13:52:15.968Z,59.40
2019-05-25T13:54:44.791Z,59.90
2019-05-25T13:57:13.534Z,58.70
2019-05-25T13:59:42.340Z,57.80
2019-05-25T14:02:11.102Z,58.00
2019-05-25T14:04:39.989Z,57.20
2019-05-25T14:07:08.793Z,57.20
2019-05-25T14:09:37.606Z,56.20
2019-05-25T14:12:06.383Z,57.10
2019-05-25T14:14:35.143Z,57.30
2019-05-25T14:17:04.012Z,56.80
2019-05-25T14:19:32.824Z,56.00
2019-05-25T14:22:01.848Z,57.00
2019-05-25T14:24:30.605Z,56.40
2019-05-25T14:26:59.589Z,55.70
2019-05-25T14:29:28.388Z,55.30
2019-05-25T14:31:57.174Z,54.00
2019-05-25T14:34:25.931Z,53.70
2019-05-25T14:36:54.777Z,55.30
2019-05-25T14:39:23.752Z,57.30
2019-05-25T14:41:52.563Z,56.60
2019-05-25T14:44:21.371Z,56.40
2019-05-25T14:46:51.805Z,56.80
2019-05-25T14:49:20.643Z,57.50
2019-05-25T14:51:49.422Z,56.90
2019-05-25T14:54:18.196Z,56.40
2019-05-25T14:56:46.976Z,55.90
2019-05-25T14:59:15.725Z,56.10
2019-05-25T15:02:01.140Z,55.90
2019-05-25T15:04:15.158Z,56.20
2019-05-25T15:06:55.483Z,56.70
2019-05-25T15:09:24.675Z,58.40
2019-05-25T15:11:56.567Z,58.20
2019-05-25T15:14:25.681Z,57.60
2019-05-25T15:16:54.752Z,58.50
2019-05-25T15:19:26.665Z,58.20
2019-05-25T15:21:55.808Z,57.30
2019-05-25T15:24:24.916Z,57.80
2019-05-25T15:27:08.458Z,57.40
2019-05-25T15:29:24.737Z,57.60
2019-05-25T15:31:53.535Z,57.10
2019-05-25T15:34:24.352Z,58.40
2019-05-25T15:36:53.245Z,57.50
2019-05-25T15:39:22.139Z,57.10
2019-05-25T15:41:50.955Z,57.60
2019-05-25T15:44:19.819Z,57.40
2019-05-25T15:46:48.619Z,56.70
2019-05-25T15:49:17.755Z,55.90
2019-05-25T15:51:46.682Z,56.30
2019-05-25T15:54:15.517Z,57.90
2019-05-25T15:56:44.387Z,58.80
2019-05-25T15:59:13.296Z,59.60
2019-05-25T16:01:42.289Z,60.00
2019-05-25T16:04:11.159Z,59.90
2019-05-25T16:06:39.925Z,58.70
2019-05-25T16:09:08.912Z,59.00
2019-05-25T16:11:37.696Z,58.70
2019-05-25T16:14:07.764Z,58.60
2019-05-25T16:16:36.790Z,59.10
2019-05-25T16:19:05.631Z,58.70
2019-05-25T16:21:34.424Z,58.50
2019-05-25T16:24:03.178Z,58.90
2019-05-25T16:26:44.918Z,60.20
2019-05-25T16:29:02.505Z,59.80
2019-05-25T16:31:31.340Z,59.90
2019-05-25T16:34:00.184Z,60.20
2019-05-25T16:36:29.025Z,60.10
2019-05-25T16:38:57.968Z,59.50
2019-05-25T16:41:26.724Z,59.40
2019-05-25T16:43:55.517Z,59.70
2019-05-25T16:46:26.400Z,59.80
2019-05-25T16:48:55.392Z,60.00
2019-05-25T16:51:25.590Z,60.30
2019-05-25T16:53:54.448Z,59.80
2019-05-25T16:56:23.351Z,59.90
2019-05-25T16:58:52.136Z,60.20
2019-05-25T17:01:20.906Z,60.50
2019-05-25T17:03:49.675Z,60.30
2019-05-25T17:06:18.424Z,60.90
2019-05-25T17:08:47.178Z,61.90
2019-05-25T17:11:15.948Z,63.00
2019-05-25T17:13:44.716Z,62.40
2019-05-25T17:16:13.498Z,60.60
2019-05-25T17:18:42.245Z,59.80
2019-05-25T17:21:11.009Z,59.20
2019-05-25T17:23:40.098Z,58.70
2019-05-25T17:26:08.908Z,58.60
2019-05-25T17:28:37.755Z,58.70
2019-05-25T17:31:06.597Z,59.10
2019-05-25T17:33:45.830Z,58.10
2019-05-25T17:36:12.961Z,58.60
2019-05-25T17:38:41.480Z,57.90
2019-05-25T17:41:11.403Z,57.20
2019-05-25T17:46:17.127Z,56.60
2019-05-25T17:48:45.902Z,56.10
2019-05-25T17:51:14.833Z,55.30
2019-05-25T17:53:43.652Z,57.10
2019-05-25T17:56:12.492Z,56.80
2019-05-25T17:58:49.730Z,56.50
2019-05-25T18:01:14.325Z,56.60
2019-05-25T18:04:04.243Z,57.20
2019-05-25T18:06:16.285Z,57.70
2019-05-25T18:08:45.189Z,56.60
2019-05-25T18:11:13.985Z,56.60
2019-05-25T18:13:43.317Z,56.60
2019-05-25T18:16:12.313Z,57.80
2019-05-25T18:18:41.125Z,57.50
2019-05-25T18:21:09.990Z,57.60
2019-05-25T18:23:38.918Z,58.10
2019-05-25T18:26:07.854Z,58.40
2019-05-25T18:28:36.797Z,58.00
2019-05-25T18:31:05.792Z,57.00
2019-05-25T18:33:36.566Z,56.70
2019-05-25T18:36:05.565Z,57.70
2019-05-25T18:38:34.805Z,57.90
2019-05-25T18:41:03.676Z,57.80
2019-05-25T18:43:32.497Z,57.50
2019-05-25T18:46:03.396Z,58.00
2019-05-25T18:48:40.519Z,58.50
2019-05-25T18:51:09.378Z,58.40
2019-05-25T18:53:38.351Z,58.90
2019-05-25T18:56:08.553Z,59.60
2019-05-25T18:58:37.580Z,58.80
2019-05-25T19:01:06.454Z,59.30
2019-05-25T19:03:37.622Z,59.90
2019-05-25T19:06:06.546Z,60.90
2019-05-25T19:08:35.400Z,60.00
2019-05-25T19:11:04.305Z,60.00
2019-05-25T19:13:33.667Z,59.90
2019-05-25T19:16:02.601Z,59.90
2019-05-25T19:18:31.509Z,61.20
2019-05-25T19:21:00.542Z,63.00
2019-05-25T19:23:29.454Z,63.60
2019-05-25T19:25:58.249Z,62.30
2019-05-25T19:28:27.079Z,61.90
2019-05-25T19:30:55.920Z,62.30
2019-05-25T19:33:25.200Z,63.50
2019-05-25T19:35:54.567Z,63.10
2019-05-25T19:38:23.880Z,65.00
2019-05-25T19:40:52.969Z,64.90
2019-05-25T19:43:24.416Z,64.40
2019-05-25T19:45:53.223Z,64.80
2019-05-25T19:48:22.149Z,63.90
2019-05-25T19:50:50.916Z,64.80
2019-05-25T19:53:19.710Z,65.10
2019-05-25T19:55:48.491Z,65.40
2019-05-25T19:58:17.371Z,66.20
2019-05-25T20:00:46.151Z,65.20
2019-05-25T20:03:15.021Z,64.90
2019-05-25T20:05:44.501Z,65.90
2019-05-25T20:08:13.347Z,66.40
2019-05-25T20:10:42.115Z,67.50
2019-05-25T20:13:10.873Z,67.20
2019-05-25T20:15:39.673Z,67.30
2019-05-25T20:18:08.537Z,69.50
2019-05-25T20:20:37.303Z,70.40
2019-05-25T20:23:06.150Z,71.50
2019-05-25T20:25:34.976Z,71.60
2019-05-25T20:28:03.812Z,72.30
2019-05-25T20:30:32.580Z,72.80
2019-05-25T20:33:01.347Z,72.50
2019-05-25T20:35:33.523Z,72.70
2019-05-25T20:38:00.708Z,71.80
2019-05-25T20:40:29.453Z,72.50
2019-05-25T20:42:58.256Z,72.90
2019-05-25T20:45:27.264Z,73.60
2019-05-25T20:47:56.029Z,74.30
2019-05-25T20:50:24.838Z,75.00
2019-05-25T20:52:53.749Z,75.10
2019-05-25T20:55:22.609Z,74.50
2019-05-25T20:57:51.337Z,74.80
2019-05-25T21:00:24.041Z,74.60
2019-05-25T21:03:05.198Z,74.00
2019-05-25T21:05:21.270Z,73.80
2019-05-25T21:07:50.127Z,74.80
2019-05-25T21:10:18.967Z,76.90
2019-05-25T21:12:47.825Z,76.60
2019-05-25T21:15:18.136Z,76.90
2019-05-25T21:17:46.889Z,76.90
2019-05-25T21:20:16.160Z,78.70
2019-05-25T21:22:44.901Z,78.10
2019-05-25T21:25:13.793Z,77.30
2019-05-25T21:27:42.543Z,76.60
2019-05-25T21:30:13.673Z,76.50
2019-05-25T21:32:42.494Z,76.00
2019-05-25T21:35:11.438Z,75.40
2019-05-25T21:37:40.199Z,75.60
2019-05-25T21:40:09.810Z,76.70
2019-05-25T21:42:38.629Z,77.20
2019-05-25T21:45:07.538Z,77.30
2019-05-25T21:47:36.285Z,77.40
2019-05-25T21:50:05.735Z,77.40
2019-05-25T21:52:34.493Z,77.60
2019-05-25T21:55:03.450Z,78.10
2019-05-25T21:57:32.224Z,78.50
2019-05-25T22:00:01.214Z,79.80
2019-05-25T22:02:30.004Z,79.60
2019-05-25T22:04:58.929Z,79.80
2019-05-25T22:07:27.765Z,80.10
2019-05-25T22:09:56.616Z,79.90
2019-05-25T22:12:25.560Z,79.30
2019-05-25T22:14:54.482Z,79.10
2019-05-25T22:17:23.300Z,80.20
2019-05-25T22:19:52.147Z,79.40
2019-05-25T22:22:21.050Z,79.70
2019-05-25T22:24:49.826Z,79.80
2019-05-25T22:27:18.667Z,80.00
2019-05-25T22:29:47.427Z,79.20
2019-05-25T22:32:16.184Z,79.40
2019-05-25T22:34:45.016Z,78.50
2019-05-25T22:37:13.792Z,78.80
2019-05-25T22:39:42.789Z,78.40
2019-05-25T22:42:11.616Z,78.70
2019-05-25T22:44:40.379Z,79.20
2019-05-25T22:47:09.126Z,79.30
2019-05-25T22:49:37.886Z,78.60
2019-05-25T22:52:06.638Z,79.20
2019-05-25T22:54:35.395Z,78.00
2019-05-25T22:57:04.685Z,77.90
2019-05-25T22:59:33.572Z,78.40
2019-05-25T23:02:02.332Z,79.60
2019-05-25T23:04:31.061Z,79.00
2019-05-25T23:06:59.999Z,79.60
2019-05-25T23:09:28.876Z,79.60
2019-05-25T23:11:57.723Z,80.40
2019-05-25T23:14:26.559Z,80.70
2019-05-25T23:16:55.297Z,80.80
2019-05-25T23:19:24.135Z,80.80
2019-05-25T23:21:52.876Z,80.80
2019-05-25T23:24:21.694Z,81.40
2019-05-25T23:26:50.447Z,80.90
2019-05-25T23:29:19.274Z,82.20
2019-05-25T23:31:48.046Z,81.00
2019-05-25T23:34:16.926Z,80.80
2019-05-25T23:36:45.694Z,81.10
2019-05-25T23:39:14.445Z,80.90
2019-05-25T23:41:43.585Z,81.30
2019-05-25T23:44:12.355Z,81.10
2019-05-25T23:46:41.152Z,80.50
2019-05-25T23:49:09.963Z,81.60
2019-05-25T23:51:38.789Z,81.40
2019-05-25T23:54:07.568Z,81.50
2019-05-25T23:56:36.479Z,82.00
2019-05-25T23:59:05.328Z,82.10
